createdAt,value
2019-05-09T00:02:26.786Z,36.44
2019-05-09T00:07:30.350Z,37.38
2019-05-09T00:12:33.945Z,36.55
2019-05-09T00:17:37.488Z,35.90
2019-05-09T00:22:41.051Z,37.49
2019-05-09T00:27:45.003Z,37.27
2019-05-09T00:32:49.568Z,36.71
2019-05-09T00:37:57.686Z,36.09
2019-05-09T00:43:03.653Z,36.69
2019-05-09T00:48:06.565Z,35.23
2019-05-09T00:53:10.118Z,37.35
2019-05-09T00:58:13.725Z,36.07
2019-05-09T01:03:17.300Z,36.89
2019-05-09T01:08:20.859Z,34.89
2019-05-09T01:13:24.432Z,34.90
2019-05-09T01:18:28.002Z,32.51
2019-05-09T01:23:31.570Z,30.52
2019-05-09T01:28:35.134Z,30.55
2019-05-09T01:33:43.922Z,30.96
2019-05-09T01:38:47.592Z,32.00
2019-05-09T01:43:53.510Z,32.20
2019-05-09T01:48:56.457Z,32.47
2019-05-09T01:54:00.023Z,32.92
2019-05-09T01:59:03.605Z,33.81
2019-05-09T02:04:07.187Z,33.23
2019-05-09T02:09:10.741Z,34.29
2019-05-09T02:14:15.882Z,33.83
2019-05-09T02:19:24.161Z,34.76
2019-05-09T02:24:27.729Z,34.62
2019-05-09T02:29:33.628Z,35.21
2019-05-09T02:34:36.611Z,35.85
2019-05-09T02:39:40.208Z,35.97
2019-05-09T02:44:43.762Z,35.44
2019-05-09T02:49:48.606Z,35.77
2019-05-09T02:54:52.393Z,36.77
2019-05-09T03:00:03.474Z,35.09
2019-05-09T03:05:08.765Z,36.86
2019-05-09T03:10:12.411Z,36.49
2019-05-09T03:15:18.600Z,37.32
2019-05-09T03:20:32.212Z,37.31
2019-05-09T03:25:35.752Z,37.70
2019-05-09T03:30:40.903Z,37.02
2019-05-09T03:35:44.460Z,37.91
2019-05-09T03:40:48.022Z,37.79
2019-05-09T03:45:55.880Z,38.05
2019-05-09T03:50:59.472Z,37.82
2019-05-09T03:56:04.588Z,37.84
2019-05-09T04:01:10.679Z,38.71
2019-05-09T04:06:13.460Z,39.03
2019-05-09T04:11:18.509Z,34.68
2019-05-09T04:16:22.192Z,31.89
2019-05-09T04:21:27.821Z,31.35
2019-05-09T04:26:35.405Z,31.20
2019-05-09T04:31:39.001Z,31.82
2019-05-09T04:36:42.579Z,32.24
2019-05-09T04:41:48.431Z,32.30
2019-05-09T04:46:54.285Z,32.80
2019-05-09T04:51:58.374Z,33.64
2019-05-09T04:57:02.025Z,33.76
2019-05-09T05:02:23.046Z,34.21
2019-05-09T05:07:28.729Z,33.93
2019-05-09T05:12:31.925Z,34.23
2019-05-09T05:17:37.636Z,34.08
2019-05-09T05:22:42.396Z,34.59
2019-05-09T05:27:47.499Z,34.30
2019-05-09T05:32:57.912Z,35.53
2019-05-09T05:38:01.748Z,36.33
2019-05-09T05:43:05.310Z,35.97
2019-05-09T05:48:17.485Z,35.83
2019-05-09T05:53:21.258Z,36.66
2019-05-09T05:58:24.933Z,36.96
2019-05-09T06:03:28.484Z,36.69
2019-05-09T06:08:32.051Z,37.26
2019-05-09T06:13:37.809Z,37.24
2019-05-09T06:18:40.925Z,37.88
2019-05-09T06:23:44.524Z,38.16
2019-05-09T06:28:48.243Z,37.78
2019-05-09T06:33:53.573Z,37.79
2019-05-09T06:38:58.751Z,37.85
2019-05-09T06:44:14.209Z,38.07
2019-05-09T06:49:24.240Z,37.48
2019-05-09T06:54:17.462Z,37.46
2019-05-09T06:59:21.212Z,36.97
2019-05-09T07:04:32.521Z,36.78
2019-05-09T07:09:38.459Z,34.37
2019-05-09T07:14:42.207Z,31.54
2019-05-09T07:19:48.534Z,29.26
2019-05-09T07:24:56.763Z,27.89
2019-05-09T07:29:59.522Z,27.91
2019-05-09T07:35:04.771Z,27.98
2019-05-09T07:40:10.439Z,28.62
2019-05-09T07:45:14.064Z,28.99
2019-05-09T07:50:18.933Z,29.33
2019-05-09T07:55:23.729Z,29.87
2019-05-09T08:00:35.018Z,30.19
2019-05-09T08:05:38.768Z,30.64
2019-05-09T08:10:42.416Z,31.08
2019-05-09T08:15:47.774Z,31.49
2019-05-09T08:20:51.492Z,32.18
2019-05-09T08:25:55.063Z,32.69
2019-05-09T08:30:58.760Z,33.43
2019-05-09T08:36:02.303Z,33.67
2019-05-09T08:41:09.874Z,34.99
2019-05-09T08:46:13.460Z,35.04
2019-05-09T08:51:47.280Z,35.25
2019-05-09T08:56:40.789Z,36.21
2019-05-09T09:02:09.964Z,35.67
2019-05-09T09:06:50.070Z,36.27
2019-05-09T09:11:53.699Z,36.08
2019-05-09T09:16:57.728Z,35.93
2019-05-09T09:22:01.413Z,36.86
2019-05-09T09:27:04.975Z,37.12
2019-05-09T09:32:08.668Z,36.76
2019-05-09T09:37:12.218Z,37.71
2019-05-09T09:42:19.452Z,37.73
2019-05-09T09:47:23.383Z,37.81
2019-05-09T09:52:29.058Z,37.83
2019-05-09T09:57:31.683Z,36.28
2019-05-09T10:02:37.850Z,36.24
2019-05-09T10:07:41.586Z,36.73
2019-05-09T10:12:45.130Z,35.18
2019-05-09T10:17:50.270Z,32.64
2019-05-09T10:23:00.559Z,30.88
2019-05-09T10:27:59.176Z,31.38
2019-05-09T10:33:02.739Z,32.98
2019-05-09T10:38:08.778Z,34.22
2019-05-09T10:43:35.912Z,34.41
2019-05-09T10:48:34.694Z,34.57
2019-05-09T10:53:38.287Z,34.66
2019-05-09T10:58:41.846Z,34.38
2019-05-09T11:03:47.992Z,34.61
2019-05-09T11:08:50.724Z,35.71
2019-05-09T11:13:54.745Z,35.15
2019-05-09T11:18:58.756Z,35.54
2019-05-09T11:24:02.360Z,35.26
2019-05-09T11:29:07.794Z,35.35
2019-05-09T11:34:11.266Z,35.37
2019-05-09T11:39:14.809Z,35.29
2019-05-09T11:44:18.526Z,36.25
2019-05-09T11:49:22.127Z,35.73
2019-05-09T11:54:27.843Z,36.81
2019-05-09T11:59:31.004Z,36.98
2019-05-09T12:04:34.621Z,37.31
2019-05-09T12:09:38.586Z,37.48
2019-05-09T12:14:42.348Z,37.31
2019-05-09T12:19:48.909Z,37.21
2019-05-09T12:24:54.066Z,37.41
2019-05-09T12:29:58.272Z,37.49
2019-05-09T12:35:02.171Z,37.77
2019-05-09T12:40:08.301Z,37.55
2019-05-09T12:45:12.081Z,37.37
2019-05-09T12:50:15.636Z,37.34
2019-05-09T12:55:19.199Z,37.61
2019-05-09T13:00:22.823Z,37.36
2019-05-09T13:05:27.403Z,37.62
2019-05-09T13:10:31.152Z,37.60
2019-05-09T13:15:38.447Z,37.48
2019-05-09T13:20:41.632Z,37.30
2019-05-09T13:25:45.223Z,37.34
2019-05-09T13:30:48.983Z,37.17
2019-05-09T13:35:52.573Z,36.74
2019-05-09T13:40:58.439Z,37.51
2019-05-09T13:46:01.460Z,37.46
2019-05-09T13:51:05.084Z,37.10
2019-05-09T13:56:08.707Z,36.51
2019-05-09T14:01:12.326Z,36.60
2019-05-09T14:06:15.914Z,35.77
2019-05-09T14:11:19.644Z,34.82
2019-05-09T14:16:23.234Z,34.19
2019-05-09T14:21:29.528Z,34.23
2019-05-09T14:26:32.141Z,35.41
2019-05-09T14:31:35.689Z,35.47
2019-05-09T14:36:44.472Z,35.47
2019-05-09T14:41:47.072Z,34.88
2019-05-09T14:46:49.871Z,35.94
2019-05-09T14:51:53.441Z,36.33
2019-05-09T14:56:58.406Z,36.17
2019-05-09T15:02:02.293Z,35.62
2019-05-09T15:07:07.602Z,36.26
2019-05-09T15:12:11.178Z,36.49
2019-05-09T15:17:14.720Z,37.79
2019-05-09T15:22:18.690Z,38.07
2019-05-09T15:27:22.220Z,38.07
2019-05-09T15:32:27.721Z,38.51
2019-05-09T15:37:31.481Z,38.87
2019-05-09T15:42:35.108Z,38.97
2019-05-09T15:47:39.442Z,38.94
2019-05-09T15:52:43.175Z,38.36
2019-05-09T15:57:48.599Z,39.10
2019-05-09T16:02:52.047Z,38.52
2019-05-09T16:07:55.589Z,39.14
2019-05-09T16:12:59.162Z,38.98
2019-05-09T16:18:02.781Z,38.74
2019-05-09T16:23:08.346Z,38.61
2019-05-09T16:28:11.623Z,38.59
2019-05-09T16:33:15.199Z,38.78
2019-05-09T16:38:18.842Z,38.77
2019-05-09T16:43:22.389Z,38.94
2019-05-09T16:48:27.660Z,39.17
2019-05-09T16:53:31.346Z,39.36
2019-05-09T16:58:35.095Z,38.74
2019-05-09T17:03:38.642Z,38.56
2019-05-09T17:08:42.209Z,37.59
2019-05-09T17:13:45.806Z,37.79
2019-05-09T17:18:49.390Z,36.59
2019-05-09T17:23:53.056Z,38.31
2019-05-09T17:28:56.663Z,34.87
2019-05-09T17:34:00.224Z,35.72
2019-05-09T17:39:07.757Z,36.43
2019-05-09T17:44:11.042Z,37.34
2019-05-09T17:49:14.616Z,37.16
2019-05-09T17:54:18.420Z,36.76
2019-05-09T17:59:22.136Z,36.67
2019-05-09T18:04:25.746Z,36.90
2019-05-09T18:09:29.779Z,36.65
2019-05-09T18:14:33.379Z,37.03
2019-05-09T18:19:38.116Z,37.70
2019-05-09T18:24:41.922Z,38.39
2019-05-09T18:29:47.425Z,38.17
2019-05-09T18:34:52.624Z,38.97
2019-05-09T18:39:58.151Z,39.08
2019-05-09T18:45:01.567Z,39.23
2019-05-09T18:50:09.054Z,39.92
2019-05-09T18:55:12.647Z,39.94
2019-05-09T19:00:17.995Z,39.91
2019-05-09T19:05:21.892Z,39.40
2019-05-09T19:10:25.883Z,40.16
2019-05-09T19:15:37.114Z,39.68
2019-05-09T19:20:42.263Z,40.24
2019-05-09T19:25:45.862Z,39.53
2019-05-09T19:30:49.409Z,40.10
2019-05-09T19:35:52.994Z,40.62
2019-05-09T19:40:56.584Z,39.81
2019-05-09T19:46:00.179Z,39.98
2019-05-09T19:51:03.778Z,40.36
2019-05-09T19:56:07.348Z,40.13
2019-05-09T20:01:10.967Z,40.37
2019-05-09T20:06:16.644Z,40.68
2019-05-09T20:11:22.159Z,40.03
2019-05-09T20:16:28.198Z,40.72
2019-05-09T20:21:31.790Z,40.76
2019-05-09T20:26:35.669Z,39.71
2019-05-09T20:31:39.296Z,39.34
2019-05-09T20:36:42.826Z,38.57
2019-05-09T20:41:46.609Z,38.32
2019-05-09T20:46:50.374Z,38.16
2019-05-09T20:51:54.200Z,37.79
2019-05-09T20:56:58.022Z,38.18
2019-05-09T21:02:03.613Z,37.79
2019-05-09T21:07:07.353Z,38.37
2019-05-09T21:12:11.326Z,38.81
2019-05-09T21:17:15.039Z,37.83
2019-05-09T21:22:18.842Z,38.21
2019-05-09T21:27:22.609Z,39.11
2019-05-09T21:32:26.329Z,39.48
2019-05-09T21:37:29.908Z,39.10
2019-05-09T21:42:33.502Z,39.37
2019-05-09T21:47:37.390Z,40.33
2019-05-09T21:52:40.981Z,40.21
2019-05-09T21:57:44.623Z,40.18
2019-05-09T22:02:48.192Z,40.17
2019-05-09T22:07:51.957Z,40.88
2019-05-09T22:12:55.537Z,41.04
2019-05-09T22:18:05.784Z,40.66
2019-05-09T22:23:09.474Z,41.23
2019-05-09T22:28:13.039Z,41.41
2019-05-09T22:33:17.088Z,41.35
2019-05-09T22:38:21.251Z,41.40
2019-05-09T22:43:25.016Z,40.05
2019-05-09T22:48:28.709Z,38.08
2019-05-09T22:53:32.735Z,34.97
2019-05-09T22:58:36.515Z,34.72
2019-05-09T23:03:40.103Z,35.68
2019-05-09T23:08:43.765Z,36.19
2019-05-09T23:13:52.806Z,36.37
2019-05-09T23:18:56.817Z,37.29
2019-05-09T23:24:27.990Z,37.45
2019-05-09T23:29:22.556Z,38.08
2019-05-09T23:34:26.168Z,38.53
2019-05-09T23:39:31.293Z,38.62
2019-05-09T23:44:34.952Z,39.98
2019-05-09T23:49:38.515Z,39.83
2019-05-09T23:55:00.128Z,39.46
